sensor_id;sensor_type;location;lat;lon;timestamp;pressure;altitude;pressure_sealevel;temperature;humidity
17785;BME280;9016;53.582;10.062;2023-09-19T00:01:02;100251.44;;;19.00;86.14
17785;BME280;9016;53.582;10.062;2023-09-19T00:03:30;100254.38;;;19.07;85.85
17785;BME280;9016;53.582;10.062;2023-09-19T00:05:58;100254.38;;;19.07;85.92
17785;BME280;9016;53.582;10.062;2023-09-19T00:08:26;100250.63;;;19.00;85.99
17785;BME280;9016;53.582;10.062;2023-09-19T00:10:54;100244.38;;;18.99;86.42
17785;BME280;9016;53.582;10.062;2023-09-19T00:13:23;100249.41;;;18.94;86.77
17785;BME280;9016;53.582;10.062;2023-09-19T00:15:51;100251.78;;;18.79;87.54
17785;BME280;9016;53.582;10.062;2023-09-19T00:18:23;100249.25;;;18.78;87.59
17785;BME280;9016;53.582;10.062;2023-09-19T00:20:57;100257.88;;;18.82;87.71
17785;BME280;9016;53.582;10.062;2023-09-19T00:23:25;100257.25;;;18.88;87.59
17785;BME280;9016;53.582;10.062;2023-09-19T00:25:53;100257.88;;;18.82;87.42
17785;BME280;9016;53.582;10.062;2023-09-19T00:28:24;100260.13;;;18.86;87.52
17785;BME280;9016;53.582;10.062;2023-09-19T00:30:53;100269.34;;;18.75;87.71
17785;BME280;9016;53.582;10.062;2023-09-19T00:33:23;100263.16;;;18.83;87.72
17785;BME280;9016;53.582;10.062;2023-09-19T00:35:52;100265.00;;;18.83;87.50
17785;BME280;9016;53.582;10.062;2023-09-19T00:38:21;100263.59;;;18.78;87.80
17785;BME280;9016;53.582;10.062;2023-09-19T00:40:54;100265.38;;;18.88;88.11
17785;BME280;9016;53.582;10.062;2023-09-19T00:43:26;100273.47;;;18.88;87.24
17785;BME280;9016;53.582;10.062;2023-09-19T00:45:56;100266.22;;;18.88;87.82
17785;BME280;9016;53.582;10.062;2023-09-19T00:48:29;100258.81;;;18.72;87.56
17785;BME280;9016;53.582;10.062;2023-09-19T00:50:59;100266.09;;;18.72;88.72
17785;BME280;9016;53.582;10.062;2023-09-19T00:53:31;100261.59;;;18.81;88.20
17785;BME280;9016;53.582;10.062;2023-09-19T00:56:01;100270.63;;;18.71;87.81
17785;BME280;9016;53.582;10.062;2023-09-19T00:58:31;100259.75;;;18.81;87.56
17785;BME280;9016;53.582;10.062;2023-09-19T01:01:01;100265.69;;;18.85;87.65
17785;BME280;9016;53.582;10.062;2023-09-19T01:03:36;100276.84;;;18.90;86.96
17785;BME280;9016;53.582;10.062;2023-09-19T01:06:05;100271.38;;;18.82;87.16
17785;BME280;9016;53.582;10.062;2023-09-19T01:08:34;100274.72;;;18.75;87.77
17785;BME280;9016;53.582;10.062;2023-09-19T01:11:13;100273.38;;;18.79;88.04
17785;BME280;9016;53.582;10.062;2023-09-19T01:13:50;100284.34;;;18.96;87.29
17785;BME280;9016;53.582;10.062;2023-09-19T01:16:32;100281.31;;;18.99;86.81
17785;BME280;9016;53.582;10.062;2023-09-19T01:19:20;100286.69;;;18.91;86.87
17785;BME280;9016;53.582;10.062;2023-09-19T01:21:55;100287.59;;;18.82;87.26
17785;BME280;9016;53.582;10.062;2023-09-19T01:24:46;100287.75;;;18.80;87.52
17785;BME280;9016;53.582;10.062;2023-09-19T01:27:40;100288.22;;;18.75;88.21
17785;BME280;9016;53.582;10.062;2023-09-19T01:30:20;100289.75;;;18.78;88.30
17785;BME280;9016;53.582;10.062;2023-09-19T01:32:50;100291.63;;;18.77;87.77
17785;BME280;9016;53.582;10.062;2023-09-19T01:35:19;100295.84;;;18.80;87.02
17785;BME280;9016;53.582;10.062;2023-09-19T01:37:47;100303.66;;;18.83;85.93
17785;BME280;9016;53.582;10.062;2023-09-19T01:40:19;100297.41;;;18.83;85.77
17785;BME280;9016;53.582;10.062;2023-09-19T01:42:55;100299.03;;;18.75;84.61
17785;BME280;9016;53.582;10.062;2023-09-19T01:45:33;100302.09;;;18.63;84.67
17785;BME280;9016;53.582;10.062;2023-09-19T01:48:13;100299.69;;;18.60;85.41
17785;BME280;9016;53.582;10.062;2023-09-19T01:50:52;100291.38;;;18.71;85.80
17785;BME280;9016;53.582;10.062;2023-09-19T01:53:26;100302.78;;;18.83;84.65
17785;BME280;9016;53.582;10.062;2023-09-19T01:55:57;100319.28;;;18.79;83.29
17785;BME280;9016;53.582;10.062;2023-09-19T01:58:32;100307.16;;;18.84;83.01
17785;BME280;9016;53.582;10.062;2023-09-19T02:01:04;100316.91;;;18.76;82.75
17785;BME280;9016;53.582;10.062;2023-09-19T02:03:35;100317.28;;;18.82;81.50
17785;BME280;9016;53.582;10.062;2023-09-19T02:06:04;100312.81;;;18.72;80.85
17785;BME280;9016;53.582;10.062;2023-09-19T02:08:38;100322.22;;;18.68;81.27
17785;BME280;9016;53.582;10.062;2023-09-19T02:11:06;100322.91;;;18.70;80.45
17785;BME280;9016;53.582;10.062;2023-09-19T02:13:34;100329.41;;;18.77;80.96
17785;BME280;9016;53.582;10.062;2023-09-19T02:16:04;100331.78;;;18.81;80.39
17785;BME280;9016;53.582;10.062;2023-09-19T02:18:33;100338.41;;;18.86;79.91
17785;BME280;9016;53.582;10.062;2023-09-19T02:21:02;100344.19;;;18.91;80.27
17785;BME280;9016;53.582;10.062;2023-09-19T02:23:30;100343.38;;;18.91;79.68
17785;BME280;9016;53.582;10.062;2023-09-19T02:25:59;100346.97;;;18.82;80.87
17785;BME280;9016;53.582;10.062;2023-09-19T02:28:28;100350.75;;;18.71;81.92
17785;BME280;9016;53.582;10.062;2023-09-19T02:30:58;100343.75;;;18.60;82.83
17785;BME280;9016;53.582;10.062;2023-09-19T02:33:28;100342.25;;;18.48;84.24
17785;BME280;9016;53.582;10.062;2023-09-19T02:35:59;100350.81;;;18.61;84.29
17785;BME280;9016;53.582;10.062;2023-09-19T02:38:30;100343.91;;;18.59;83.75
17785;BME280;9016;53.582;10.062;2023-09-19T02:40:58;100356.44;;;18.50;84.93
17785;BME280;9016;53.582;10.062;2023-09-19T02:43:27;100347.34;;;18.51;84.68
17785;BME280;9016;53.582;10.062;2023-09-19T02:45:55;100342.34;;;18.56;84.87
17785;BME280;9016;53.582;10.062;2023-09-19T02:48:24;100349.84;;;18.62;84.22
17785;BME280;9016;53.582;10.062;2023-09-19T02:50:53;100358.59;;;18.47;84.54
17785;BME280;9016;53.582;10.062;2023-09-19T02:53:21;100365.38;;;18.51;85.13
17785;BME280;9016;53.582;10.062;2023-09-19T02:55:50;100351.50;;;18.46;85.28
17785;BME280;9016;53.582;10.062;2023-09-19T02:58:19;100352.66;;;18.43;85.09
17785;BME280;9016;53.582;10.062;2023-09-19T03:00:47;100356.16;;;18.53;84.63
17785;BME280;9016;53.582;10.062;2023-09-19T03:03:16;100343.25;;;18.47;84.26
17785;BME280;9016;53.582;10.062;2023-09-19T03:05:45;100343.34;;;18.55;84.27
17785;BME280;9016;53.582;10.062;2023-09-19T03:08:17;100337.56;;;18.50;83.60
17785;BME280;9016;53.582;10.062;2023-09-19T03:10:46;100346.72;;;18.57;82.75
17785;BME280;9016;53.582;10.062;2023-09-19T03:13:14;100352.97;;;18.58;82.47
17785;BME280;9016;53.582;10.062;2023-09-19T03:15:42;100358.31;;;18.67;82.26
17785;BME280;9016;53.582;10.062;2023-09-19T03:18:13;100356.47;;;18.68;81.49
17785;BME280;9016;53.582;10.062;2023-09-19T03:20:41;100362.63;;;18.60;80.68
17785;BME280;9016;53.582;10.062;2023-09-19T03:23:09;100374.41;;;18.59;81.18
17785;BME280;9016;53.582;10.062;2023-09-19T03:25:38;100373.38;;;18.70;80.99
17785;BME280;9016;53.582;10.062;2023-09-19T03:28:07;100370.88;;;18.76;79.93
17785;BME280;9016;53.582;10.062;2023-09-19T03:30:36;100371.81;;;18.85;79.68
17785;BME280;9016;53.582;10.062;2023-09-19T03:33:05;100365.50;;;18.76;78.92
17785;BME280;9016;53.582;10.062;2023-09-19T03:35:33;100372.56;;;18.60;78.98
17785;BME280;9016;53.582;10.062;2023-09-19T03:38:01;100369.16;;;18.58;79.18
17785;BME280;9016;53.582;10.062;2023-09-19T03:40:29;100381.53;;;18.60;78.64
17785;BME280;9016;53.582;10.062;2023-09-19T03:43:01;100375.88;;;18.54;78.74
17785;BME280;9016;53.582;10.062;2023-09-19T03:45:29;100379.19;;;18.48;79.02
17785;BME280;9016;53.582;10.062;2023-09-19T03:47:57;100384.06;;;18.44;78.79
17785;BME280;9016;53.582;10.062;2023-09-19T03:50:25;100387.72;;;18.43;78.29
17785;BME280;9016;53.582;10.062;2023-09-19T03:52:56;100398.38;;;18.35;79.70
17785;BME280;9016;53.582;10.062;2023-09-19T03:55:24;100393.44;;;18.31;78.64
17785;BME280;9016;53.582;10.062;2023-09-19T03:57:52;100396.00;;;18.32;78.52
17785;BME280;9016;53.582;10.062;2023-09-19T04:00:21;100401.53;;;18.04;76.82
17785;BME280;9016;53.582;10.062;2023-09-19T04:02:51;100406.66;;;17.97;76.75
17785;BME280;9016;53.582;10.062;2023-09-19T04:05:20;100406.25;;;17.92;76.33
17785;BME280;9016;53.582;10.062;2023-09-19T04:07:48;100418.13;;;17.99;76.60
17785;BME280;9016;53.582;10.062;2023-09-19T04:10:16;100419.31;;;17.87;75.73
17785;BME280;9016;53.582;10.062;2023-09-19T04:12:51;100417.22;;;17.81;74.96
17785;BME280;9016;53.582;10.062;2023-09-19T04:15:20;100422.91;;;17.78;74.96
17785;BME280;9016;53.582;10.062;2023-09-19T04:17:51;100429.72;;;17.72;74.86
17785;BME280;9016;53.582;10.062;2023-09-19T04:20:19;100430.00;;;17.60;74.85
17785;BME280;9016;53.582;10.062;2023-09-19T04:22:49;100434.28;;;17.62;75.19
17785;BME280;9016;53.582;10.062;2023-09-19T04:25:17;100440.22;;;17.66;73.83
17785;BME280;9016;53.582;10.062;2023-09-19T04:27:45;100436.56;;;17.57;73.55
17785;BME280;9016;53.582;10.062;2023-09-19T04:30:14;100440.38;;;17.55;73.43
17785;BME280;9016;53.582;10.062;2023-09-19T04:32:43;100459.06;;;17.47;73.10
17785;BME280;9016;53.582;10.062;2023-09-19T04:35:12;100456.66;;;17.44;72.35
17785;BME280;9016;53.582;10.062;2023-09-19T04:37:41;100470.41;;;17.31;72.80
17785;BME280;9016;53.582;10.062;2023-09-19T04:40:10;100474.53;;;17.35;72.77
17785;BME280;9016;53.582;10.062;2023-09-19T04:42:44;100467.00;;;17.10;73.73
17785;BME280;9016;53.582;10.062;2023-09-19T04:45:12;100464.31;;;17.10;73.70
17785;BME280;9016;53.582;10.062;2023-09-19T04:47:41;100483.28;;;17.09;74.10
17785;BME280;9016;53.582;10.062;2023-09-19T04:50:12;100484.72;;;17.13;73.92
17785;BME280;9016;53.582;10.062;2023-09-19T04:52:41;100483.13;;;17.01;73.47
17785;BME280;9016;53.582;10.062;2023-09-19T04:55:13;100470.97;;;17.16;73.36
17785;BME280;9016;53.582;10.062;2023-09-19T04:57:44;100479.75;;;17.08;73.64
17785;BME280;9016;53.582;10.062;2023-09-19T05:00:14;100486.28;;;17.06;72.95
17785;BME280;9016;53.582;10.062;2023-09-19T05:02:44;100481.41;;;16.90;73.61
17785;BME280;9016;53.582;10.062;2023-09-19T05:05:14;100488.94;;;16.96;73.91
17785;BME280;9016;53.582;10.062;2023-09-19T05:07:44;100482.72;;;17.05;73.65
17785;BME280;9016;53.582;10.062;2023-09-19T05:10:12;100482.88;;;17.04;73.48
17785;BME280;9016;53.582;10.062;2023-09-19T05:12:41;100480.03;;;17.05;73.24
17785;BME280;9016;53.582;10.062;2023-09-19T05:15:12;100488.50;;;17.01;73.25
17785;BME280;9016;53.582;10.062;2023-09-19T05:17:41;100492.78;;;17.03;73.35
17785;BME280;9016;53.582;10.062;2023-09-19T05:20:10;100502.84;;;17.01;73.22
17785;BME280;9016;53.582;10.062;2023-09-19T05:22:42;100505.13;;;17.06;73.61
17785;BME280;9016;53.582;10.062;2023-09-19T05:25:11;100504.66;;;17.01;73.51
17785;BME280;9016;53.582;10.062;2023-09-19T05:27:42;100501.41;;;16.97;73.71
17785;BME280;9016;53.582;10.062;2023-09-19T05:30:11;100505.66;;;16.90;74.16
17785;BME280;9016;53.582;10.062;2023-09-19T05:32:40;100510.06;;;16.91;74.52
17785;BME280;9016;53.582;10.062;2023-09-19T05:35:09;100515.72;;;16.98;74.22
17785;BME280;9016;53.582;10.062;2023-09-19T05:37:39;100508.19;;;16.82;74.46
17785;BME280;9016;53.582;10.062;2023-09-19T05:40:10;100507.16;;;16.73;74.74
17785;BME280;9016;53.582;10.062;2023-09-19T05:42:38;100502.53;;;16.85;73.87
17785;BME280;9016;53.582;10.062;2023-09-19T05:45:08;100499.28;;;16.91;73.62
17785;BME280;9016;53.582;10.062;2023-09-19T05:47:38;100505.94;;;16.87;73.96
17785;BME280;9016;53.582;10.062;2023-09-19T05:50:11;100512.88;;;16.99;73.86
17785;BME280;9016;53.582;10.062;2023-09-19T05:52:41;100519.69;;;16.94;74.22
17785;BME280;9016;53.582;10.062;2023-09-19T05:55:12;100511.16;;;16.89;74.34
17785;BME280;9016;53.582;10.062;2023-09-19T05:57:41;100521.06;;;16.88;73.93
17785;BME280;9016;53.582;10.062;2023-09-19T06:00:10;100522.38;;;16.94;74.04
17785;BME280;9016;53.582;10.062;2023-09-19T06:02:38;100522.53;;;17.02;74.47
17785;BME280;9016;53.582;10.062;2023-09-19T06:05:07;100518.13;;;16.91;74.20
17785;BME280;9016;53.582;10.062;2023-09-19T06:07:37;100517.91;;;17.13;74.24
17785;BME280;9016;53.582;10.062;2023-09-19T06:10:06;100510.66;;;17.33;73.23
17785;BME280;9016;53.582;10.062;2023-09-19T06:12:39;100519.88;;;17.40;72.82
17785;BME280;9016;53.582;10.062;2023-09-19T06:15:07;100530.06;;;17.27;73.28
17785;BME280;9016;53.582;10.062;2023-09-19T06:17:39;100530.09;;;17.46;73.05
17785;BME280;9016;53.582;10.062;2023-09-19T06:20:08;100535.34;;;17.38;72.80
17785;BME280;9016;53.582;10.062;2023-09-19T06:22:40;100534.53;;;17.66;72.91
17785;BME280;9016;53.582;10.062;2023-09-19T06:25:09;100530.56;;;17.89;71.35
17785;BME280;9016;53.582;10.062;2023-09-19T06:27:40;100532.50;;;18.06;70.68
17785;BME280;9016;53.582;10.062;2023-09-19T06:30:10;100536.63;;;18.01;70.29
17785;BME280;9016;53.582;10.062;2023-09-19T06:32:39;100546.28;;;17.94;69.59
17785;BME280;9016;53.582;10.062;2023-09-19T06:35:11;100547.41;;;17.91;70.13
17785;BME280;9016;53.582;10.062;2023-09-19T06:37:40;100550.69;;;17.85;70.57
17785;BME280;9016;53.582;10.062;2023-09-19T06:40:09;100541.03;;;17.92;69.39
17785;BME280;9016;53.582;10.062;2023-09-19T06:42:43;100545.88;;;17.98;69.38
17785;BME280;9016;53.582;10.062;2023-09-19T06:45:12;100549.84;;;17.85;69.87
17785;BME280;9016;53.582;10.062;2023-09-19T06:47:44;100538.91;;;17.96;69.61
17785;BME280;9016;53.582;10.062;2023-09-19T06:50:16;100542.63;;;17.85;69.97
17785;BME280;9016;53.582;10.062;2023-09-19T06:52:46;100558.59;;;18.15;69.50
17785;BME280;9016;53.582;10.062;2023-09-19T06:55:17;100550.09;;;18.01;69.25
17785;BME280;9016;53.582;10.062;2023-09-19T06:57:47;100556.19;;;18.12;68.53
17785;BME280;9016;53.582;10.062;2023-09-19T07:00:16;100553.97;;;17.98;69.08
17785;BME280;9016;53.582;10.062;2023-09-19T07:02:54;100545.72;;;18.09;68.87
17785;BME280;9016;53.582;10.062;2023-09-19T07:05:22;100563.72;;;18.18;69.56
17785;BME280;9016;53.582;10.062;2023-09-19T07:07:50;100562.94;;;18.35;68.42
17785;BME280;9016;53.582;10.062;2023-09-19T07:10:18;100569.59;;;18.50;68.18
17785;BME280;9016;53.582;10.062;2023-09-19T07:12:56;100590.50;;;18.48;67.75
17785;BME280;9016;53.582;10.062;2023-09-19T07:15:25;100589.78;;;18.46;68.43
17785;BME280;9016;53.582;10.062;2023-09-19T07:17:54;100574.16;;;18.40;67.92
17785;BME280;9016;53.582;10.062;2023-09-19T07:20:24;100592.38;;;18.48;68.24
17785;BME280;9016;53.582;10.062;2023-09-19T07:22:53;100591.56;;;18.65;67.93
17785;BME280;9016;53.582;10.062;2023-09-19T07:25:22;100585.34;;;18.64;67.81
17785;BME280;9016;53.582;10.062;2023-09-19T07:27:50;100594.91;;;18.86;67.13
17785;BME280;9016;53.582;10.062;2023-09-19T07:30:20;100591.63;;;18.92;66.29
17785;BME280;9016;53.582;10.062;2023-09-19T07:32:48;100592.66;;;18.82;67.34
17785;BME280;9016;53.582;10.062;2023-09-19T07:35:16;100587.72;;;18.77;66.81
17785;BME280;9016;53.582;10.062;2023-09-19T07:37:45;100594.41;;;18.73;67.48
17785;BME280;9016;53.582;10.062;2023-09-19T07:40:18;100600.19;;;18.78;67.42
17785;BME280;9016;53.582;10.062;2023-09-19T07:42:47;100609.75;;;18.72;66.93
17785;BME280;9016;53.582;10.062;2023-09-19T07:45:17;100604.94;;;18.66;66.70
17785;BME280;9016;53.582;10.062;2023-09-19T07:47:47;100608.13;;;18.79;67.04
17785;BME280;9016;53.582;10.062;2023-09-19T07:50:15;100605.19;;;18.73;67.13
17785;BME280;9016;53.582;10.062;2023-09-19T07:52:46;100599.81;;;18.63;67.20
17785;BME280;9016;53.582;10.062;2023-09-19T07:55:14;100612.72;;;18.79;67.14
17785;BME280;9016;53.582;10.062;2023-09-19T07:57:44;100609.75;;;18.72;67.13
17785;BME280;9016;53.582;10.062;2023-09-19T08:00:13;100613.06;;;18.57;69.00
17785;BME280;9016;53.582;10.062;2023-09-19T08:02:42;100628.00;;;18.32;72.53
17785;BME280;9016;53.582;10.062;2023-09-19T08:05:13;100620.09;;;17.93;75.92
17785;BME280;9016;53.582;10.062;2023-09-19T08:07:45;100620.09;;;17.83;77.09
17785;BME280;9016;53.582;10.062;2023-09-19T08:10:15;100632.84;;;17.81;77.51
17785;BME280;9016;53.582;10.062;2023-09-19T08:12:47;100633.81;;;17.90;77.58
17785;BME280;9016;53.582;10.062;2023-09-19T08:15:16;100629.72;;;17.76;78.68
17785;BME280;9016;53.582;10.062;2023-09-19T08:17:47;100632.84;;;17.81;78.78
17785;BME280;9016;53.582;10.062;2023-09-19T08:20:17;100628.88;;;17.75;78.66
17785;BME280;9016;53.582;10.062;2023-09-19T08:22:47;100626.31;;;17.64;76.36
17785;BME280;9016;53.582;10.062;2023-09-19T08:25:16;100623.19;;;17.98;76.10
17785;BME280;9016;53.582;10.062;2023-09-19T08:27:46;100632.28;;;18.06;75.11
17785;BME280;9016;53.582;10.062;2023-09-19T08:30:15;100617.66;;;18.09;73.58
17785;BME280;9016;53.582;10.062;2023-09-19T08:32:44;100626.88;;;18.35;73.06
17785;BME280;9016;53.582;10.062;2023-09-19T08:35:13;100617.78;;;18.26;71.24
17785;BME280;9016;53.582;10.062;2023-09-19T08:37:43;100622.16;;;18.46;70.89
17785;BME280;9016;53.582;10.062;2023-09-19T08:40:13;100625.72;;;18.47;70.96
17785;BME280;9016;53.582;10.062;2023-09-19T08:42:47;100615.13;;;18.72;70.40
17785;BME280;9016;53.582;10.062;2023-09-19T08:45:16;100617.13;;;18.70;71.02
17785;BME280;9016;53.582;10.062;2023-09-19T08:47:46;100617.31;;;18.59;70.46
17785;BME280;9016;53.582;10.062;2023-09-19T08:50:21;100620.44;;;18.64;69.83
17785;BME280;9016;53.582;10.062;2023-09-19T08:52:58;100626.59;;;18.47;69.44
17785;BME280;9016;53.582;10.062;2023-09-19T08:55:28;100624.97;;;18.64;68.89
17785;BME280;9016;53.582;10.062;2023-09-19T08:58:00;100625.69;;;18.66;68.45
17785;BME280;9016;53.582;10.062;2023-09-19T09:00:28;100626.63;;;18.84;67.94
17785;BME280;9016;53.582;10.062;2023-09-19T09:02:57;100615.50;;;18.87;67.20
17785;BME280;9016;53.582;10.062;2023-09-19T09:05:27;100621.31;;;19.02;66.49
17785;BME280;9016;53.582;10.062;2023-09-19T09:07:58;100624.75;;;18.94;66.89
17785;BME280;9016;53.582;10.062;2023-09-19T09:10:26;100622.78;;;18.87;66.27
17785;BME280;9016;53.582;10.062;2023-09-19T09:12:55;100626.91;;;18.81;65.85
17785;BME280;9016;53.582;10.062;2023-09-19T09:15:24;100632.94;;;19.02;65.82
17785;BME280;9016;53.582;10.062;2023-09-19T09:17:52;100645.03;;;18.98;65.37
17785;BME280;9016;53.582;10.062;2023-09-19T09:20:20;100635.44;;;19.13;65.19
17785;BME280;9016;53.582;10.062;2023-09-19T09:22:51;100637.41;;;19.21;65.32
17785;BME280;9016;53.582;10.062;2023-09-19T09:25:22;100642.63;;;19.22;64.98
17785;BME280;9016;53.582;10.062;2023-09-19T09:28:01;100632.53;;;19.24;64.35
17785;BME280;9016;53.582;10.062;2023-09-19T09:30:35;100642.34;;;19.35;63.31
17785;BME280;9016;53.582;10.062;2023-09-19T09:33:08;100639.03;;;19.41;63.70
17785;BME280;9016;53.582;10.062;2023-09-19T09:35:47;100639.13;;;19.66;63.02
17785;BME280;9016;53.582;10.062;2023-09-19T09:38:20;100635.00;;;19.90;61.88
17785;BME280;9016;53.582;10.062;2023-09-19T09:40:51;100643.50;;;19.95;60.24
17785;BME280;9016;53.582;10.062;2023-09-19T09:43:29;100635.84;;;20.08;60.29
17785;BME280;9016;53.582;10.062;2023-09-19T09:46:08;100639.16;;;20.02;59.33
17785;BME280;9016;53.582;10.062;2023-09-19T09:49:00;100640.59;;;20.23;59.17
17785;BME280;9016;53.582;10.062;2023-09-19T09:51:48;100635.50;;;20.46;58.47
17785;BME280;9016;53.582;10.062;2023-09-19T09:54:27;100646.78;;;20.59;57.52
17785;BME280;9016;53.582;10.062;2023-09-19T09:57:03;100646.91;;;20.75;57.13
17785;BME280;9016;53.582;10.062;2023-09-19T09:59:48;100637.59;;;20.78;56.49
17785;BME280;9016;53.582;10.062;2023-09-19T10:02:18;100646.97;;;21.17;54.14
17785;BME280;9016;53.582;10.062;2023-09-19T10:04:52;100641.50;;;21.09;54.78
17785;BME280;9016;53.582;10.062;2023-09-19T10:07:27;100639.22;;;21.22;54.49
17785;BME280;9016;53.582;10.062;2023-09-19T10:10:00;100647.69;;;21.27;53.51
17785;BME280;9016;53.582;10.062;2023-09-19T10:12:43;100640.34;;;21.11;53.49
17785;BME280;9016;53.582;10.062;2023-09-19T10:15:12;100635.22;;;21.00;53.17
17785;BME280;9016;53.582;10.062;2023-09-19T10:17:43;100643.69;;;20.80;52.78
17785;BME280;9016;53.582;10.062;2023-09-19T10:20:13;100636.94;;;20.84;53.12
17785;BME280;9016;53.582;10.062;2023-09-19T10:23:00;100640.78;;;20.99;52.70
17785;BME280;9016;53.582;10.062;2023-09-19T10:25:29;100645.09;;;21.09;51.36
17785;BME280;9016;53.582;10.062;2023-09-19T10:28:00;100642.09;;;21.20;51.20
17785;BME280;9016;53.582;10.062;2023-09-19T10:30:31;100656.72;;;21.02;51.10
17785;BME280;9016;53.582;10.062;2023-09-19T10:33:02;100625.66;;;21.22;50.48
17785;BME280;9016;53.582;10.062;2023-09-19T10:35:32;100630.03;;;21.15;49.65
17785;BME280;9016;53.582;10.062;2023-09-19T10:38:01;100635.34;;;21.32;50.01
17785;BME280;9016;53.582;10.062;2023-09-19T10:40:30;100639.72;;;21.67;50.94
17785;BME280;9016;53.582;10.062;2023-09-19T10:43:02;100632.16;;;21.37;49.88
17785;BME280;9016;53.582;10.062;2023-09-19T10:45:33;100648.25;;;21.05;51.36
17785;BME280;9016;53.582;10.062;2023-09-19T10:48:02;100655.19;;;21.33;50.58
17785;BME280;9016;53.582;10.062;2023-09-19T10:50:33;100637.22;;;21.32;50.17
17785;BME280;9016;53.582;10.062;2023-09-19T10:53:05;100635.44;;;21.15;50.09
17785;BME280;9016;53.582;10.062;2023-09-19T10:55:35;100639.44;;;21.36;50.41
17785;BME280;9016;53.582;10.062;2023-09-19T10:58:05;100637.72;;;21.27;50.01
17785;BME280;9016;53.582;10.062;2023-09-19T11:00:51;100647.28;;;21.06;50.00
17785;BME280;9016;53.582;10.062;2023-09-19T11:03:21;100652.25;;;20.93;50.57
17785;BME280;9016;53.582;10.062;2023-09-19T11:06:04;100644.22;;;20.83;51.00
17785;BME280;9016;53.582;10.062;2023-09-19T11:09:00;100653.56;;;20.89;51.51
17785;BME280;9016;53.582;10.062;2023-09-19T11:11:44;100646.75;;;21.02;51.37
17785;BME280;9016;53.582;10.062;2023-09-19T11:14:37;100642.03;;;20.87;50.92
17785;BME280;9016;53.582;10.062;2023-09-19T11:17:34;100647.78;;;20.84;51.16
17785;BME280;9016;53.582;10.062;2023-09-19T11:20:20;100648.25;;;20.53;52.24
17785;BME280;9016;53.582;10.062;2023-09-19T11:23:23;100649.19;;;20.44;52.49
17785;BME280;9016;53.582;10.062;2023-09-19T11:25:53;100648.56;;;20.50;52.28
17785;BME280;9016;53.582;10.062;2023-09-19T11:28:34;100642.84;;;21.05;51.46
17785;BME280;9016;53.582;10.062;2023-09-19T11:34:43;100627.69;;;21.20;50.12
17785;BME280;9016;53.582;10.062;2023-09-19T11:40:46;100635.63;;;21.63;48.86
17785;BME280;9016;53.582;10.062;2023-09-19T11:43:29;100642.06;;;21.54;48.13
17785;BME280;9016;53.582;10.062;2023-09-19T11:46:04;100635.91;;;21.44;48.14
17785;BME280;9016;53.582;10.062;2023-09-19T11:48:33;100641.06;;;20.96;48.43
17785;BME280;9016;53.582;10.062;2023-09-19T11:51:18;100634.56;;;20.81;49.40
17785;BME280;9016;53.582;10.062;2023-09-19T11:53:55;100649.88;;;20.98;49.65
17785;BME280;9016;53.582;10.062;2023-09-19T11:56:27;100634.28;;;21.17;49.92
17785;BME280;9016;53.582;10.062;2023-09-19T11:58:56;100621.66;;;21.00;49.69
17785;BME280;9016;53.582;10.062;2023-09-19T12:01:29;100624.81;;;20.96;50.32
17785;BME280;9016;53.582;10.062;2023-09-19T12:04:00;100626.06;;;20.76;50.46
17785;BME280;9016;53.582;10.062;2023-09-19T12:06:33;100630.50;;;20.85;50.38
17785;BME280;9016;53.582;10.062;2023-09-19T12:09:03;100629.34;;;20.87;51.09
17785;BME280;9016;53.582;10.062;2023-09-19T12:11:41;100636.59;;;21.04;50.19
17785;BME280;9016;53.582;10.062;2023-09-19T12:14:11;100621.66;;;21.00;50.23
17785;BME280;9016;53.582;10.062;2023-09-19T12:16:40;100637.47;;;21.13;50.40
17785;BME280;9016;53.582;10.062;2023-09-19T12:19:18;100627.50;;;21.13;50.04
17785;BME280;9016;53.582;10.062;2023-09-19T12:21:58;100636.72;;;21.36;50.04
17785;BME280;9016;53.582;10.062;2023-09-19T12:24:31;100629.41;;;21.29;49.80
17785;BME280;9016;53.582;10.062;2023-09-19T12:27:03;100622.91;;;21.55;49.75
17785;BME280;9016;53.582;10.062;2023-09-19T12:29:42;100633.50;;;21.33;48.68
17785;BME280;9016;53.582;10.062;2023-09-19T12:32:11;100636.16;;;21.17;50.00
17785;BME280;9016;53.582;10.062;2023-09-19T12:34:39;100636.63;;;21.12;50.05
17785;BME280;9016;53.582;10.062;2023-09-19T12:37:12;100618.72;;;21.19;50.04
17785;BME280;9016;53.582;10.062;2023-09-19T12:39:43;100629.69;;;21.18;49.95
17785;BME280;9016;53.582;10.062;2023-09-19T12:42:16;100623.06;;;21.12;49.75
17785;BME280;9016;53.582;10.062;2023-09-19T12:44:45;100635.44;;;21.15;49.58
17785;BME280;9016;53.582;10.062;2023-09-19T12:47:16;100625.66;;;20.96;49.62
17785;BME280;9016;53.582;10.062;2023-09-19T12:50:06;100614.47;;;21.17;49.29
17785;BME280;9016;53.582;10.062;2023-09-19T12:52:36;100630.63;;;21.34;48.93
17785;BME280;9016;53.582;10.062;2023-09-19T12:55:05;100613.56;;;21.50;48.48
17785;BME280;9016;53.582;10.062;2023-09-19T12:57:34;100610.84;;;21.50;49.00
17785;BME280;9016;53.582;10.062;2023-09-19T13:00:02;100612.75;;;21.65;48.70
17785;BME280;9016;53.582;10.062;2023-09-19T13:02:32;100615.63;;;21.64;47.63
17785;BME280;9016;53.582;10.062;2023-09-19T13:05:00;100606.38;;;21.83;48.48
17785;BME280;9016;53.582;10.062;2023-09-19T13:07:42;100598.41;;;21.89;47.56
17785;BME280;9016;53.582;10.062;2023-09-19T13:10:16;100604.97;;;21.79;47.03
17785;BME280;9016;53.582;10.062;2023-09-19T13:12:47;100597.75;;;22.03;46.59
17785;BME280;9016;53.582;10.062;2023-09-19T13:15:15;100591.28;;;21.88;47.21
17785;BME280;9016;53.582;10.062;2023-09-19T13:17:47;100601.19;;;21.47;47.23
17785;BME280;9016;53.582;10.062;2023-09-19T13:20:23;100587.84;;;21.70;46.80